Time;durP1;ratioP1;P1;durP2;ratioP2;P2;SDS_P1;SDS_P2;PMS_P1;PMS_P2;Temp;Humidity;BMP_temperature;BMP_pressure;BME280_temperature;BME280_humidity;BME280_pressure;Samples;Min_cycle;Max_cycle;Signal;HPM_P1;HPM_P2
2022/12/25 00:02:31;;;;;;;234.25;175.57;;;14.10;99.90;;;;;;5032200;28;20501;-67
2022/12/25 00:05:38;;;;;;;227.82;171.85;;;14.20;99.90;;;;;;5042918;28;20064;-67
2022/12/25 00:08:42;;;;;;;222.32;167.45;;;14.20;99.90;;;;;;5032317;28;20034;-67
2022/12/25 00:11:46;;;;;;;214.23;163.23;;;14.10;99.90;;;;;;5032207;28;20398;-68
2022/12/25 00:14:50;;;;;;;237.40;172.27;;;14.10;99.90;;;;;;5032427;28;20033;-68
2022/12/25 00:17:54;;;;;;;239.65;176.40;;;14.10;99.90;;;;;;5031972;28;20045;-69
2022/12/25 00:20:59;;;;;;;271.88;203.65;;;14.10;99.90;;;;;;5032147;28;20029;-68
2022/12/25 00:24:04;;;;;;;264.92;194.00;;;14.20;99.90;;;;;;5031259;28;20194;-68
2022/12/25 00:27:08;;;;;;;256.73;197.98;;;14.30;99.90;;;;;;5032065;28;20041;-68
2022/12/25 00:30:12;;;;;;;276.25;208.05;;;14.30;99.90;;;;;;5030976;28;20038;-68
2022/12/25 00:33:16;;;;;;;266.17;203.18;;;14.20;99.90;;;;;;5031842;28;20037;-68
2022/12/25 00:36:21;;;;;;;278.73;207.13;;;14.20;99.90;;;;;;5032177;28;20054;-68
2022/12/25 00:39:25;;;;;;;213.07;157.00;;;14.20;99.90;;;;;;5032055;28;20280;-68
2022/12/25 00:42:29;;;;;;;220.02;165.90;;;14.20;99.90;;;;;;5031618;28;20041;-69
2022/12/25 00:45:33;;;;;;;223.27;166.63;;;14.00;99.90;;;;;;5031653;28;20497;-68
2022/12/25 00:48:38;;;;;;;234.35;167.40;;;13.90;99.90;;;;;;5031686;28;20037;-68
2022/12/25 00:51:42;;;;;;;238.07;174.05;;;13.90;99.90;;;;;;5031360;28;20501;-68
2022/12/25 00:54:46;;;;;;;244.80;175.63;;;13.90;99.90;;;;;;5042502;28;20398;-68
2022/12/25 00:57:50;;;;;;;232.32;169.38;;;13.90;99.90;;;;;;5030595;28;20045;-68
2022/12/25 01:00:55;;;;;;;222.48;157.30;;;14.00;99.90;;;;;;5030835;28;20445;-68
2022/12/25 01:03:59;;;;;;;210.32;153.30;;;14.00;99.90;;;;;;5031533;28;20376;-68
2022/12/25 01:07:03;;;;;;;210.05;160.48;;;14.00;99.90;;;;;;5031206;28;20033;-68
2022/12/25 01:10:21;;;;;;;225.05;165.07;;;13.90;99.90;;;;;;5031536;28;20486;-68
2022/12/25 01:13:26;;;;;;;224.10;167.93;;;13.90;99.90;;;;;;5031145;28;20041;-68
2022/12/25 01:16:30;;;;;;;226.10;162.20;;;13.80;99.90;;;;;;5030966;28;20037;-68
2022/12/25 01:19:34;;;;;;;215.57;158.15;;;13.80;99.90;;;;;;5031412;28;20053;-67
2022/12/25 01:22:38;;;;;;;206.85;155.25;;;13.70;99.90;;;;;;5030951;28;20420;-68
2022/12/25 01:25:42;;;;;;;236.88;174.13;;;13.80;99.90;;;;;;5031094;28;20390;-68
2022/12/25 01:28:47;;;;;;;239.75;176.82;;;13.80;99.90;;;;;;5031019;28;20555;-68
2022/12/25 01:31:50;;;;;;;228.95;168.18;;;14.10;99.90;;;;;;5030871;28;20260;-68
2022/12/25 01:34:54;;;;;;;228.32;171.43;;;13.90;99.90;;;;;;5031101;28;20040;-68
2022/12/25 01:37:58;;;;;;;237.30;169.82;;;13.80;99.90;;;;;;5030937;28;20053;-68
2022/12/25 01:41:03;;;;;;;239.18;167.35;;;13.90;99.90;;;;;;5030470;28;20501;-68
2022/12/25 01:44:11;;;;;;;215.38;154.85;;;13.90;99.90;;;;;;5029962;28;20501;-68
2022/12/25 01:47:17;;;;;;;201.68;145.82;;;13.90;99.90;;;;;;5029936;28;20037;-68
2022/12/25 01:50:21;;;;;;;214.48;147.70;;;13.90;99.90;;;;;;5030745;28;20041;-68
2022/12/25 01:53:26;;;;;;;208.40;148.45;;;13.80;99.90;;;;;;5041570;28;20402;-68
2022/12/25 01:56:31;;;;;;;202.02;146.45;;;13.90;99.90;;;;;;5030506;28;20060;-68
2022/12/25 01:59:35;;;;;;;199.13;144.52;;;13.90;99.90;;;;;;5030733;28;20037;-68
2022/12/25 02:02:41;;;;;;;184.30;129.75;;;13.90;99.90;;;;;;5030440;28;20049;-68
2022/12/25 02:05:46;;;;;;;172.25;119.05;;;13.80;99.90;;;;;;5029659;28;20038;-68
2022/12/25 02:08:50;;;;;;;158.35;112.43;;;13.80;99.90;;;;;;5030602;28;20045;-68
2022/12/25 02:11:55;;;;;;;139.77;99.32;;;13.70;99.90;;;;;;5030562;28;20041;-68
2022/12/25 02:15:06;;;;;;;126.43;83.40;;;13.70;99.90;;;;;;5030625;28;20037;-68
2022/12/25 02:18:35;;;;;;;106.45;68.70;;;13.70;99.90;;;;;;5041151;28;20060;-68
2022/12/25 02:22:07;;;;;;;113.13;70.57;;;13.70;99.90;;;;;;5030445;28;20056;-68
2022/12/25 02:25:32;;;;;;;99.13;61.00;;;13.70;99.90;;;;;;5030409;28;20064;-68
2022/12/25 02:28:36;;;;;;;97.07;58.00;;;13.80;99.90;;;;;;5030621;28;20049;-68
2022/12/25 02:31:45;;;;;;;94.80;59.45;;;13.90;99.90;;;;;;5030285;28;20036;-68
2022/12/25 02:35:08;;;;;;;91.15;58.35;;;13.80;99.90;;;;;;5030375;28;20040;-68
2022/12/25 02:38:19;;;;;;;98.65;55.47;;;13.70;99.90;;;;;;5030269;28;20056;-68
2022/12/25 02:41:22;;;;;;;98.95;61.45;;;13.90;99.90;;;;;;5030471;28;20052;-68
2022/12/25 03:08:35;;;;;;;95.10;56.35;;;13.70;99.90;;;;;;5034014;28;20064;-68
2022/12/25 03:11:39;;;;;;;94.05;57.80;;;13.80;99.90;;;;;;5033494;28;20041;-69
2022/12/25 03:18:15;;;;;;;96.05;59.33;;;13.80;99.90;;;;;;5033290;28;20060;-68
2022/12/25 03:28:09;;;;;;;76.07;51.78;;;13.70;99.90;;;;;;5032765;28;20048;-68
2022/12/25 03:31:13;;;;;;;80.82;47.80;;;13.70;99.90;;;;;;5033039;28;20488;-68
2022/12/25 04:36:58;;;;;;;62.63;40.88;;;13.70;99.90;;;;;;5031936;28;20409;-68
2022/12/25 04:40:03;;;;;;;64.50;40.55;;;13.80;99.90;;;;;;5031759;28;20069;-68
2022/12/25 04:43:07;;;;;;;65.60;41.40;;;13.80;99.90;;;;;;5031093;28;20045;-68
2022/12/25 04:46:11;;;;;;;64.65;39.63;;;13.70;99.90;;;;;;5031945;28;20044;-68
2022/12/25 04:49:15;;;;;;;66.72;39.47;;;13.60;99.90;;;;;;5042478;28;20048;-68
2022/12/25 04:52:19;;;;;;;64.45;41.28;;;13.60;99.90;;;;;;5031742;28;20044;-68
2022/12/25 04:55:42;;;;;;;68.63;38.80;;;13.60;99.90;;;;;;5039642;28;20053;-69
2022/12/25 04:59:05;;;;;;;66.22;38.35;;;13.70;99.90;;;;;;5031463;28;20052;-69
2022/12/25 05:02:08;;;;;;;63.05;38.28;;;13.60;99.90;;;;;;5031518;28;20060;-68
2022/12/25 05:05:12;;;;;;;61.03;35.55;;;13.60;99.90;;;;;;5031384;28;20108;-68
2022/12/25 05:08:16;;;;;;;62.38;36.67;;;13.60;99.90;;;;;;5031410;28;20041;-68
2022/12/25 05:11:20;;;;;;;59.50;33.80;;;13.60;99.90;;;;;;5030898;28;20056;-68
2022/12/25 05:14:24;;;;;;;55.00;34.78;;;13.60;99.90;;;;;;5031451;28;20045;-68
2022/12/25 05:17:28;;;;;;;59.08;34.83;;;13.70;99.90;;;;;;5031363;28;20064;-68
2022/12/25 05:20:32;;;;;;;59.20;35.83;;;13.60;99.90;;;;;;5031221;28;20041;-68
2022/12/25 05:23:37;;;;;;;61.58;34.88;;;13.60;99.90;;;;;;5030270;28;20048;-68
2022/12/25 05:26:41;;;;;;;51.47;33.10;;;13.60;99.90;;;;;;5030976;28;20045;-69
2022/12/25 05:29:45;;;;;;;55.78;32.65;;;13.60;99.90;;;;;;5030939;28;20052;-68
2022/12/25 05:32:49;;;;;;;54.38;33.95;;;13.50;99.90;;;;;;5030875;28;20401;-68
2022/12/25 05:35:53;;;;;;;64.65;34.20;;;13.60;99.90;;;;;;5031106;28;20048;-68
2022/12/25 05:38:57;;;;;;;56.72;34.38;;;13.70;99.90;;;;;;5030878;28;20544;-68
2022/12/25 05:42:01;;;;;;;58.22;33.95;;;13.60;99.90;;;;;;5030150;28;20044;-68
2022/12/25 05:45:05;;;;;;;51.35;32.80;;;13.70;99.90;;;;;;5030592;28;20393;-69
2022/12/25 05:48:09;;;;;;;53.38;31.60;;;13.70;99.90;;;;;;5030699;28;20144;-69
2022/12/25 05:51:13;;;;;;;45.05;29.95;;;13.80;99.90;;;;;;5030840;28;20064;-68
2022/12/25 05:54:17;;;;;;;47.40;29.95;;;13.70;99.90;;;;;;5030939;28;20060;-68
2022/12/25 05:57:21;;;;;;;57.28;30.52;;;13.70;99.90;;;;;;5030306;28;20053;-68
2022/12/25 06:00:25;;;;;;;51.80;30.67;;;13.70;99.90;;;;;;5030773;28;20056;-68
2022/12/25 06:03:29;;;;;;;54.80;31.83;;;13.70;99.90;;;;;;5030739;28;20045;-69
2022/12/25 06:06:33;;;;;;;48.53;29.13;;;13.70;99.90;;;;;;5030442;28;20049;-68
2022/12/25 06:09:37;;;;;;;47.90;24.65;;;13.70;99.90;;;;;;5030805;28;20052;-68
2022/12/25 06:12:42;;;;;;;41.15;23.77;;;13.70;99.90;;;;;;5030338;28;20047;-68
2022/12/25 06:15:45;;;;;;;44.90;23.80;;;13.80;99.90;;;;;;5030624;28;20508;-69
2022/12/25 06:18:52;;;;;;;49.05;26.73;;;13.90;99.90;;;;;;5029472;28;20524;-69
2022/12/25 06:21:56;;;;;;;46.53;27.58;;;13.90;99.90;;;;;;5031457;28;20045;-68
2022/12/25 06:25:00;;;;;;;48.33;27.90;;;13.90;99.90;;;;;;5034434;28;20048;-69
2022/12/25 06:28:05;;;;;;;47.45;27.45;;;13.80;99.90;;;;;;5034297;28;20044;-68
2022/12/25 06:31:12;;;;;;;45.95;28.42;;;13.80;99.90;;;;;;5034155;28;20052;-67
2022/12/25 06:34:16;;;;;;;56.75;32.10;;;13.80;99.90;;;;;;5034207;28;20247;-68
2022/12/25 06:37:20;;;;;;;61.00;32.90;;;13.70;99.90;;;;;;5034212;28;20044;-67
2022/12/25 06:40:24;;;;;;;57.00;31.80;;;13.70;99.90;;;;;;5034386;28;20052;-67
2022/12/25 06:43:28;;;;;;;56.67;32.05;;;13.70;99.90;;;;;;5034172;28;20044;-68
2022/12/25 06:46:32;;;;;;;52.30;30.42;;;13.70;99.90;;;;;;5022027;28;20056;-67
2022/12/25 06:49:36;;;;;;;58.92;32.78;;;13.70;99.90;;;;;;5034132;28;20310;-68
2022/12/25 06:52:40;;;;;;;68.47;33.28;;;13.70;99.90;;;;;;5034029;28;20036;-67
2022/12/25 06:55:43;;;;;;;55.80;33.40;;;13.70;99.90;;;;;;5033612;28;20057;-67
2022/12/25 06:58:51;;;;;;;54.30;34.20;;;13.70;99.90;;;;;;5032705;28;20049;-68
2022/12/25 07:01:56;;;;;;;60.15;36.30;;;13.70;99.90;;;;;;5033847;28;20040;-66
2022/12/25 07:05:00;;;;;;;60.30;37.03;;;13.70;99.90;;;;;;5033659;28;20064;-67
2022/12/25 07:08:04;;;;;;;62.03;39.05;;;13.70;99.90;;;;;;5044242;28;20041;-68
2022/12/25 07:11:08;;;;;;;65.63;40.35;;;13.70;99.90;;;;;;5033852;28;20053;-67
2022/12/25 07:14:22;;;;;;;68.80;42.67;;;13.70;99.90;;;;;;5033474;28;20044;-68
2022/12/25 07:17:26;;;;;;;66.28;42.15;;;13.70;99.90;;;;;;5033490;28;20199;-68
2022/12/25 07:20:30;;;;;;;64.45;41.75;;;13.70;99.90;;;;;;5032745;28;20068;-68
2022/12/25 07:23:34;;;;;;;66.32;41.85;;;13.70;99.90;;;;;;5032697;28;20048;-68
2022/12/25 07:26:38;;;;;;;70.57;41.63;;;13.80;99.90;;;;;;5033426;28;20385;-68
2022/12/25 07:29:42;;;;;;;63.65;40.05;;;13.90;99.90;;;;;;5033381;28;20052;-68
2022/12/25 07:32:46;;;;;;;61.85;41.15;;;13.90;99.90;;;;;;5032896;28;20064;-68
2022/12/25 07:35:50;;;;;;;66.75;38.60;;;13.90;99.90;;;;;;5032392;28;20052;-68
2022/12/25 07:38:55;;;;;;;68.72;39.75;;;14.00;99.90;;;;;;5032924;28;20072;-68
2022/12/25 07:41:59;;;;;;;70.35;42.22;;;14.00;99.90;;;;;;5032878;28;20441;-68
2022/12/25 07:45:05;;;;;;;66.30;42.38;;;14.00;99.90;;;;;;5043982;28;20048;-68
2022/12/25 07:48:09;;;;;;;69.70;41.78;;;14.10;99.90;;;;;;5032872;28;20041;-68
2022/12/25 07:51:15;;;;;;;69.60;42.47;;;14.10;99.90;;;;;;5032666;28;20393;-68
2022/12/25 07:54:19;;;;;;;69.60;42.25;;;14.10;99.90;;;;;;5032774;28;20041;-68
2022/12/25 07:57:23;;;;;;;71.28;42.33;;;14.20;99.90;;;;;;5032463;28;20048;-68
2022/12/25 08:00:31;;;;;;;67.10;42.17;;;14.20;99.90;;;;;;5032798;28;20052;-68
2022/12/25 08:03:35;;;;;;;73.38;43.65;;;14.30;99.90;;;;;;5032528;28;20036;-68
2022/12/25 08:06:39;;;;;;;78.60;46.38;;;14.30;99.90;;;;;;5032658;28;20068;-68
2022/12/25 08:09:42;;;;;;;75.65;47.45;;;14.30;99.90;;;;;;5032487;28;20045;-68
2022/12/25 08:12:46;;;;;;;75.57;48.95;;;14.40;99.90;;;;;;5032474;28;20064;-68
2022/12/25 08:15:58;;;;;;;67.28;42.13;;;14.40;99.90;;;;;;5032508;28;20401;-68
2022/12/25 08:19:02;;;;;;;57.03;31.63;;;14.50;99.90;;;;;;5031192;28;20052;-68
2022/12/25 08:22:06;;;;;;;51.35;30.73;;;14.50;99.90;;;;;;5032101;28;20040;-67
2022/12/25 08:25:10;;;;;;;45.17;28.67;;;14.50;99.90;;;;;;5032344;28;20060;-66
2022/12/25 08:28:13;;;;;;;44.92;29.00;;;14.60;99.90;;;;;;5031994;28;20037;-69
2022/12/25 08:31:22;;;;;;;45.35;30.38;;;14.70;99.90;;;;;;5032009;28;20044;-69
2022/12/25 08:34:26;;;;;;;43.85;28.73;;;14.70;99.90;;;;;;5032099;28;20239;-70
2022/12/25 08:37:30;;;;;;;40.70;26.30;;;14.80;99.90;;;;;;5031839;28;20421;-61
2022/12/25 08:40:34;;;;;;;43.00;28.00;;;14.90;99.90;;;;;;5032028;28;20041;-63
2022/12/25 08:43:38;;;;;;;47.05;31.48;;;15.00;99.90;;;;;;5032205;28;20041;-61
2022/12/25 08:46:42;;;;;;;51.15;32.67;;;15.10;99.90;;;;;;5031655;28;20044;-62
2022/12/25 08:49:46;;;;;;;53.92;35.67;;;15.20;99.90;;;;;;5031991;28;20064;-62
2022/12/25 08:52:50;;;;;;;57.67;34.58;;;15.30;99.90;;;;;;5031858;28;20052;-63
2022/12/25 08:55:59;;;;;;;53.45;32.17;;;15.30;99.90;;;;;;5030214;28;20048;-62
2022/12/25 08:59:03;;;;;;;37.70;26.75;;;15.50;99.90;;;;;;5042072;28;20056;-62
2022/12/25 09:02:10;;;;;;;40.55;29.38;;;15.60;99.90;;;;;;5031388;28;20049;-63
2022/12/25 09:05:14;;;;;;;45.65;31.58;;;15.80;99.90;;;;;;5031430;28;20045;-62
2022/12/25 09:08:20;;;;;;;37.88;26.85;;;15.80;99.90;;;;;;5031621;28;20041;-62
2022/12/25 09:11:24;;;;;;;46.25;27.48;;;15.90;99.90;;;;;;5031443;28;20546;-62
2022/12/25 09:14:29;;;;;;;39.22;26.65;;;15.90;99.90;;;;;;5030991;28;20504;-62
2022/12/25 09:17:33;;;;;;;34.60;24.00;;;16.00;99.90;;;;;;5030767;28;20116;-62
2022/12/25 09:20:37;;;;;;;43.55;29.77;;;16.00;99.90;;;;;;5031253;28;20500;-63
2022/12/25 09:23:41;;;;;;;38.85;25.35;;;16.10;99.90;;;;;;5031319;28;20064;-62
2022/12/25 09:26:45;;;;;;;43.70;28.92;;;16.20;99.90;;;;;;5031089;28;20053;-62
2022/12/25 09:29:49;;;;;;;38.47;27.23;;;16.30;99.90;;;;;;5031107;28;20048;-62
2022/12/25 09:32:53;;;;;;;38.33;27.13;;;16.40;99.90;;;;;;5030741;28;20056;-62
2022/12/25 09:36:00;;;;;;;47.65;30.50;;;16.50;99.90;;;;;;5030873;28;20048;-62
2022/12/25 09:39:04;;;;;;;45.17;30.25;;;16.80;99.90;;;;;;5030664;28;20121;-62
2022/12/25 09:42:28;;;;;;;37.92;27.33;;;17.10;99.90;;;;;;5031183;28;20512;-63
2022/12/25 09:45:36;;;;;;;43.90;27.60;;;17.40;99.90;;;;;;5030623;28;20397;-62
2022/12/25 09:48:44;;;;;;;48.53;29.17;;;17.70;99.90;;;;;;5030983;28;20052;-62
2022/12/25 09:51:53;;;;;;;47.65;29.83;;;18.00;99.90;;;;;;5030788;28;20191;-62
2022/12/25 09:55:07;;;;;;;42.10;28.67;;;18.10;99.90;;;;;;5031097;28;20045;-62
2022/12/25 09:58:12;;;;;;;41.15;28.92;;;18.40;99.90;;;;;;5034941;28;20064;-62
2022/12/25 10:01:38;;;;;;;45.35;28.70;;;18.50;99.90;;;;;;5035036;28;20504;-62
2022/12/25 10:05:11;;;;;;;41.30;26.73;;;18.70;99.90;;;;;;5034802;28;20504;-62
2022/12/25 10:08:30;;;;;;;38.13;24.40;;;18.90;99.90;;;;;;5034798;28;20048;-64
2022/12/25 10:11:47;;;;;;;35.80;23.20;;;19.10;99.90;;;;;;5035069;28;20049;-62
2022/12/25 10:15:09;;;;;;;36.78;24.05;;;19.00;99.90;;;;;;5034655;28;20064;-63
2022/12/25 10:18:16;;;;;;;36.63;22.60;;;18.90;99.90;;;;;;5034484;28;20056;-63
2022/12/25 10:21:22;;;;;;;35.67;20.08;;;18.80;99.90;;;;;;5034192;28;20060;-63
2022/12/25 10:24:34;;;;;;;29.90;19.58;;;18.60;99.90;;;;;;5034255;28;20052;-63
2022/12/25 10:27:41;;;;;;;29.38;16.23;;;18.40;99.90;;;;;;5034572;28;20052;-63
2022/12/25 10:30:47;;;;;;;28.55;16.80;;;18.40;99.90;;;;;;5034415;28;20065;-63
2022/12/25 10:33:52;;;;;;;34.40;17.23;;;18.30;99.90;;;;;;5034277;28;20056;-62
2022/12/25 10:36:57;;;;;;;29.85;16.13;;;18.10;99.90;;;;;;5034027;28;20037;-61
2022/12/25 10:40:02;;;;;;;24.65;15.50;;;18.10;99.90;;;;;;5032800;28;20048;-63
2022/12/25 10:43:25;;;;;;;35.05;19.38;;;18.40;99.90;;;;;;5033692;28;20060;-64
2022/12/25 10:46:29;;;;;;;48.08;26.45;;;18.70;99.90;;;;;;5034057;28;20052;-62
2022/12/25 10:49:37;;;;;;;43.58;24.65;;;18.80;99.90;;;;;;5034050;28;20064;-64
2022/12/25 10:52:59;;;;;;;30.17;17.67;;;18.70;99.90;;;;;;5033955;28;20052;-62
2022/12/25 10:56:05;;;;;;;29.45;14.77;;;18.60;99.90;;;;;;5034123;28;20453;-63
2022/12/25 10:59:10;;;;;;;24.38;13.38;;;18.50;99.90;;;;;;5033764;28;20049;-62
2022/12/25 11:02:32;;;;;;;22.60;10.63;;;18.50;99.90;;;;;;5033450;28;20044;-62
2022/12/25 11:05:36;;;;;;;28.25;12.77;;;18.70;99.90;;;;;;5033617;28;20048;-62
2022/12/25 11:08:40;;;;;;;17.08;10.75;;;18.80;99.90;;;;;;5032856;28;20057;-63
2022/12/25 11:11:46;;;;;;;15.25;8.05;;;19.00;99.90;;;;;;5033331;28;20049;-62
2022/12/25 11:14:56;;;;;;;19.90;8.18;;;19.10;99.90;;;;;;5033184;28;20044;-63
2022/12/25 11:18:00;;;;;;;16.23;8.68;;;19.20;99.90;;;;;;5033135;28;20060;-63
2022/12/25 11:21:23;;;;;;;17.33;10.05;;;19.30;99.90;;;;;;5033827;28;20476;-64
2022/12/25 11:24:29;;;;;;;21.02;10.85;;;19.10;99.90;;;;;;5033320;28;20049;-63
2022/12/25 11:27:33;;;;;;;18.13;9.27;;;18.90;99.90;;;;;;5033253;28;20052;-63
2022/12/25 11:30:39;;;;;;;17.65;7.65;;;18.70;99.90;;;;;;5033058;28;20052;-63
2022/12/25 11:33:55;;;;;;;16.42;8.30;;;18.60;99.90;;;;;;5032895;28;20397;-63
2022/12/25 11:37:01;;;;;;;15.30;7.45;;;18.70;99.90;;;;;;5033353;28;20048;-63
2022/12/25 11:40:19;;;;;;;11.73;6.57;;;18.70;99.90;;;;;;5032846;28;20429;-64
2022/12/25 11:43:37;;;;;;;18.58;8.00;;;18.70;99.90;;;;;;5032976;28;20040;-63
2022/12/25 11:46:45;;;;;;;21.33;8.30;;;18.80;99.90;;;;;;5032138;28;20056;-63
2022/12/25 11:49:56;;;;;;;15.80;7.03;;;18.90;99.90;;;;;;5032762;28;20635;-63
2022/12/25 11:53:08;;;;;;;12.48;5.75;;;18.90;99.90;;;;;;5033035;28;20052;-64
2022/12/25 11:56:18;;;;;;;17.60;7.07;;;18.90;99.90;;;;;;5032712;28;20052;-64
2022/12/25 11:59:28;;;;;;;12.45;5.50;;;18.90;99.90;;;;;;5032377;28;20405;-64
2022/12/25 12:02:51;;;;;;;16.58;7.15;;;18.90;99.90;;;;;;5032457;28;20044;-63
2022/12/25 12:06:03;;;;;;;14.57;6.65;;;18.90;99.90;;;;;;5032565;28;20508;-62
2022/12/25 12:09:26;;;;;;;13.45;6.30;;;18.80;99.90;;;;;;5032183;28;20037;-61
2022/12/25 12:12:59;;;;;;;15.27;6.63;;;18.80;99.90;;;;;;5032570;28;20068;-62
2022/12/25 12:16:04;;;;;;;18.67;7.15;;;18.80;99.90;;;;;;5032572;28;20036;-61
2022/12/25 12:19:24;;;;;;;19.25;8.30;;;18.80;99.90;;;;;;5031530;28;20048;-62
2022/12/25 12:22:28;;;;;;;18.77;6.90;;;18.70;99.90;;;;;;5032210;28;20040;-62
2022/12/25 12:25:38;;;;;;;14.50;6.88;;;18.70;99.90;;;;;;5032347;28;20052;-62
2022/12/25 12:28:45;;;;;;;15.80;6.75;;;18.60;99.90;;;;;;5031997;28;20057;-63
2022/12/25 12:31:50;;;;;;;14.98;7.22;;;18.50;99.90;;;;;;5031930;28;20393;-62
2022/12/25 12:34:55;;;;;;;13.35;7.28;;;18.50;99.90;;;;;;5032187;28;20040;-64
2022/12/25 12:38:19;;;;;;;16.80;6.97;;;18.50;99.90;;;;;;5031716;28;20382;-64
2022/12/25 12:41:41;;;;;;;15.48;7.43;;;18.50;99.90;;;;;;5031934;28;20052;-63
2022/12/25 12:44:46;;;;;;;13.07;6.80;;;18.50;99.90;;;;;;5031690;28;20048;-64
2022/12/25 12:47:51;;;;;;;14.25;6.95;;;18.50;99.90;;;;;;5031969;28;20503;-63
2022/12/25 12:51:25;;;;;;;12.63;6.47;;;18.40;99.90;;;;;;5031709;28;20040;-64
2022/12/25 12:54:28;;;;;;;14.40;6.60;;;18.40;99.90;;;;;;5031687;28;20041;-63
2022/12/25 12:57:38;;;;;;;13.32;6.38;;;18.40;99.90;;;;;;5031138;28;20057;-64
2022/12/25 13:00:53;;;;;;;20.48;8.15;;;18.40;99.90;;;;;;5031434;28;20057;-64
2022/12/25 13:04:30;;;;;;;32.03;17.25;;;18.30;99.90;;;;;;5031591;28;20056;-63
2022/12/25 13:07:43;;;;;;;24.50;15.75;;;18.30;99.90;;;;;;5019531;28;20124;-63
2022/12/25 13:10:50;;;;;;;21.80;14.00;;;18.30;99.90;;;;;;5031254;28;20497;-64
2022/12/25 13:13:58;;;;;;;19.17;9.55;;;18.30;99.90;;;;;;5031220;28;20401;-63
2022/12/25 13:17:06;;;;;;;13.45;7.70;;;18.30;99.90;;;;;;5031250;28;20048;-64
2022/12/25 13:20:29;;;;;;;19.80;8.18;;;18.30;99.90;;;;;;5030946;28;20458;-63
2022/12/25 13:23:35;;;;;;;15.13;7.57;;;18.20;99.90;;;;;;5031371;28;20040;-63
2022/12/25 13:26:39;;;;;;;16.48;9.02;;;18.20;99.90;;;;;;5031340;28;20048;-64
2022/12/25 13:29:43;;;;;;;16.63;8.05;;;18.20;99.90;;;;;;5030951;28;20060;-64
2022/12/25 13:32:48;;;;;;;22.58;10.05;;;18.20;99.90;;;;;;5041317;28;20425;-64
2022/12/25 13:35:52;;;;;;;18.88;9.00;;;18.20;99.90;;;;;;5031239;28;20064;-63
2022/12/25 13:38:57;;;;;;;19.58;10.73;;;18.20;99.90;;;;;;5030737;28;20052;-63
2022/12/25 13:42:05;;;;;;;21.60;9.00;;;18.20;99.90;;;;;;5030570;28;20044;-63
2022/12/25 13:45:12;;;;;;;25.58;9.02;;;18.30;99.90;;;;;;5031051;28;20040;-63
2022/12/25 13:48:22;;;;;;;15.43;8.57;;;18.30;99.90;;;;;;5030902;28;20092;-63
2022/12/25 13:51:27;;;;;;;21.20;12.05;;;18.40;99.90;;;;;;5030981;28;20389;-64
2022/12/25 13:54:31;;;;;;;34.78;17.50;;;18.40;99.90;;;;;;5030747;28;20306;-64
2022/12/25 13:57:52;;;;;;;36.83;18.35;;;18.40;99.90;;;;;;5030499;28;20056;-64
2022/12/25 14:00:58;;;;;;;28.00;13.55;;;18.40;99.90;;;;;;5030786;28;20048;-64
2022/12/25 14:04:02;;;;;;;20.52;9.25;;;18.40;99.90;;;;;;5030642;28;20048;-63
2022/12/25 14:07:10;;;;;;;15.98;7.88;;;18.30;99.90;;;;;;5030124;28;20052;-63
2022/12/25 14:10:15;;;;;;;12.82;5.63;;;18.30;99.90;;;;;;5030185;28;20040;-63
2022/12/25 14:13:22;;;;;;;10.73;5.20;;;18.30;99.90;;;;;;5030671;28;20040;-64
2022/12/25 14:16:28;;;;;;;9.98;5.45;;;18.20;99.90;;;;;;5030140;28;20044;-64
2022/12/25 14:19:33;;;;;;;12.48;5.65;;;18.20;99.90;;;;;;5030408;28;20056;-64
2022/12/25 14:22:37;;;;;;;10.40;5.65;;;18.10;99.90;;;;;;5030425;28;20045;-64
2022/12/25 14:25:43;;;;;;;22.60;8.55;;;18.10;99.90;;;;;;5030170;28;20036;-63
2022/12/25 14:28:54;;;;;;;15.73;8.57;;;18.10;99.90;;;;;;5030493;28;20041;-64
2022/12/25 14:31:59;;;;;;;16.88;9.70;;;18.10;99.90;;;;;;5030251;28;20524;-64
2022/12/25 14:35:04;;;;;;;17.25;9.35;;;18.00;99.90;;;;;;5030252;28;20044;-64
2022/12/25 14:38:27;;;;;;;17.92;9.30;;;18.00;99.90;;;;;;5030381;28;20065;-63
2022/12/25 14:41:40;;;;;;;16.40;9.50;;;18.00;99.90;;;;;;5030425;28;20049;-63
2022/12/25 14:44:58;;;;;;;18.88;9.48;;;18.00;99.90;;;;;;5034503;28;20048;-64
2022/12/25 14:48:20;;;;;;;15.32;8.48;;;18.00;99.90;;;;;;5033983;28;20040;-64
2022/12/25 14:51:24;;;;;;;;;;;18.00;99.90;;;;;;5034290;28;20117;-63
2022/12/25 14:54:28;;;;;;;12.02;7.00;;;17.90;99.90;;;;;;5034000;28;19909;-64
2022/12/25 14:57:49;;;;;;;17.27;9.95;;;17.90;99.90;;;;;;5033614;28;20065;-63
2022/12/25 15:00:55;;;;;;;15.45;8.95;;;17.90;99.90;;;;;;5034001;28;20056;-64
2022/12/25 15:04:08;;;;;;;16.08;8.70;;;17.80;99.90;;;;;;5033719;28;20040;-63
2022/12/25 15:07:30;;;;;;;20.17;9.82;;;17.80;99.90;;;;;;5033500;28;20044;-63
2022/12/25 15:10:34;;;;;;;18.60;8.98;;;17.80;99.90;;;;;;5033299;28;20222;-64
2022/12/25 15:13:39;;;;;;;16.10;7.70;;;17.80;99.90;;;;;;5033597;28;20413;-63
2022/12/25 15:16:53;;;;;;;14.15;7.13;;;17.70;99.90;;;;;;5033637;28;20056;-63
2022/12/25 15:19:59;;;;;;;16.88;7.68;;;17.70;99.90;;;;;;5033316;28;20108;-63
2022/12/25 15:23:03;;;;;;;19.45;8.55;;;17.70;99.90;;;;;;5033510;28;20044;-63
2022/12/25 15:26:15;;;;;;;19.52;9.75;;;17.60;99.90;;;;;;5033211;28;20045;-64
2022/12/25 15:29:19;;;;;;;;;;;17.60;99.90;;;;;;5033738;28;20052;-63
2022/12/25 15:32:23;;;;;;;18.67;10.63;;;17.50;99.90;;;;;;5033446;28;19913;-63
2022/12/25 15:35:28;;;;;;;22.75;11.70;;;17.40;99.90;;;;;;5033075;28;20045;-63
2022/12/25 15:38:35;;;;;;;20.42;9.85;;;17.40;99.90;;;;;;5033111;28;20048;-63
2022/12/25 15:45:02;;;;;;;21.17;9.25;;;17.30;99.90;;;;;;5033244;28;20056;-64
2022/12/25 15:48:06;;;;;;;17.63;9.77;;;17.30;99.90;;;;;;5032805;28;20425;-63
2022/12/25 15:51:11;;;;;;;22.27;12.48;;;17.20;99.90;;;;;;5032570;28;20048;-64
2022/12/25 15:54:15;;;;;;;21.10;12.45;;;17.20;99.90;;;;;;5032325;28;20044;-63
2022/12/25 15:57:21;;;;;;;26.85;12.25;;;17.10;99.90;;;;;;5032593;28;20052;-63
2022/12/25 16:00:25;;;;;;;25.40;13.35;;;17.10;99.90;;;;;;5032413;28;20517;-61
2022/12/25 16:03:29;;;;;;;33.55;16.52;;;17.10;99.90;;;;;;5032878;28;20056;-63
2022/12/25 16:06:33;;;;;;;35.92;17.42;;;17.00;99.90;;;;;;5032819;28;20499;-63
2022/12/25 16:09:37;;;;;;;34.85;15.98;;;17.00;99.90;;;;;;5032748;28;20048;-63
2022/12/25 16:12:42;;;;;;;32.63;14.57;;;17.00;99.90;;;;;;5032200;28;20381;-63
2022/12/25 16:15:45;;;;;;;30.10;15.20;;;16.90;99.90;;;;;;5032106;28;20044;-63
2022/12/25 16:18:49;;;;;;;35.78;16.80;;;16.90;99.90;;;;;;5032208;28;20389;-63
2022/12/25 16:21:54;;;;;;;40.30;21.83;;;16.90;99.90;;;;;;5032197;28;20400;-63
2022/12/25 16:24:59;;;;;;;36.00;20.27;;;16.90;99.90;;;;;;5032100;28;20057;-63
2022/12/25 16:28:04;;;;;;;40.65;20.95;;;16.90;99.90;;;;;;5032192;28;20048;-63
2022/12/25 16:31:10;;;;;;;38.42;17.92;;;16.80;99.90;;;;;;5032167;28;20044;-63
2022/12/25 16:34:14;;;;;;;34.00;17.92;;;16.80;99.90;;;;;;5032259;28;20496;-63
2022/12/25 16:37:18;;;;;;;37.60;17.40;;;16.70;99.90;;;;;;5031778;28;20048;-63
2022/12/25 16:40:22;;;;;;;24.40;15.55;;;16.70;99.90;;;;;;5031472;28;20060;-63
2022/12/25 16:43:26;;;;;;;30.27;13.65;;;16.70;99.90;;;;;;5031778;28;20392;-62
2022/12/25 16:46:30;;;;;;;27.33;14.40;;;16.70;99.90;;;;;;5031800;28;20044;-68
2022/12/25 16:49:34;;;;;;;24.85;13.90;;;16.60;99.90;;;;;;5042390;28;20045;-68
2022/12/25 16:52:38;;;;;;;37.42;18.42;;;16.60;99.90;;;;;;5031798;28;20496;-68
2022/12/25 16:55:42;;;;;;;38.33;21.33;;;16.60;99.90;;;;;;5031233;28;20044;-68
2022/12/25 16:58:46;;;;;;;47.42;29.23;;;16.50;99.90;;;;;;5031324;28;20041;-68
2022/12/25 17:01:51;;;;;;;43.08;22.65;;;16.50;99.90;;;;;;5031469;28;20526;-68
2022/12/25 17:04:54;;;;;;;38.22;21.40;;;16.40;99.90;;;;;;5030605;28;20060;-68
2022/12/25 17:07:58;;;;;;;28.45;15.77;;;16.40;99.90;;;;;;5031382;28;20048;-68
2022/12/25 17:11:05;;;;;;;31.10;16.05;;;16.40;99.90;;;;;;5031098;28;20052;-68
2022/12/25 17:14:10;;;;;;;29.52;17.30;;;16.40;99.90;;;;;;5030575;28;20405;-68
2022/12/25 17:17:14;;;;;;;33.72;20.77;;;16.40;99.90;;;;;;5031186;28;20041;-68
2022/12/25 17:20:18;;;;;;;40.53;21.77;;;16.30;99.90;;;;;;5030956;28;20048;-68
2022/12/25 17:23:22;;;;;;;39.55;19.90;;;16.30;99.90;;;;;;5030438;28;20060;-67
2022/12/25 17:26:26;;;;;;;36.17;21.45;;;16.20;99.90;;;;;;5031281;28;20055;-68
2022/12/25 17:29:31;;;;;;;43.25;25.38;;;16.20;99.90;;;;;;5030987;28;20052;-67
2022/12/25 17:32:34;;;;;;;41.42;23.58;;;16.10;99.90;;;;;;5030831;28;20040;-68